sensor_id;sensor_type;location;lat;lon;timestamp;pressure;altitude;pressure_sealevel;temperature;humidity
70133;BME280;57495;49.922;7.966;2023-02-21T00:00:54;100461.00;;;7.16;92.07
70133;BME280;57495;49.922;7.966;2023-02-21T00:03:13;100460.75;;;7.20;91.40
70133;BME280;57495;49.922;7.966;2023-02-21T00:05:34;100460.03;;;7.18;91.50
70133;BME280;57495;49.922;7.966;2023-02-21T00:07:53;100453.53;;;7.22;92.29
70133;BME280;57495;49.922;7.966;2023-02-21T00:10:14;100453.53;;;7.22;92.23
70133;BME280;57495;49.922;7.966;2023-02-21T00:12:33;100448.03;;;7.12;92.58
70133;BME280;57495;49.922;7.966;2023-02-21T00:14:52;100452.91;;;7.18;92.41
70133;BME280;57495;49.922;7.966;2023-02-21T00:17:11;100447.72;;;7.16;92.21
70133;BME280;57495;49.922;7.966;2023-02-21T00:19:30;100453.97;;;7.15;91.88
70133;BME280;57495;49.922;7.966;2023-02-21T00:21:51;100448.44;;;7.19;91.75
70133;BME280;57495;49.922;7.966;2023-02-21T00:24:12;100450.84;;;7.22;92.16
70133;BME280;57495;49.922;7.966;2023-02-21T00:26:31;100453.31;;;7.25;92.24
70133;BME280;57495;49.922;7.966;2023-02-21T00:28:50;100453.22;;;7.13;92.33
70133;BME280;57495;49.922;7.966;2023-02-21T00:31:09;100451.72;;;7.22;91.63
70133;BME280;57495;49.922;7.966;2023-02-21T00:33:28;100446.31;;;7.24;91.76
70133;BME280;57495;49.922;7.966;2023-02-21T00:35:47;100441.00;;;7.24;92.60
70133;BME280;57495;49.922;7.966;2023-02-21T00:38:09;100446.84;;;7.16;93.24
70133;BME280;57495;49.922;7.966;2023-02-21T00:40:28;100452.28;;;7.14;93.11
70133;BME280;57495;49.922;7.966;2023-02-21T00:42:47;100452.56;;;7.23;92.79
70133;BME280;57495;49.922;7.966;2023-02-21T00:45:07;100448.09;;;7.23;92.85
70133;BME280;57495;49.922;7.966;2023-02-21T00:47:25;100456.00;;;7.12;93.56
70133;BME280;57495;49.922;7.966;2023-02-21T00:49:45;100458.97;;;7.20;93.16
70133;BME280;57495;49.922;7.966;2023-02-21T00:52:04;100454.06;;;7.14;93.06
70133;BME280;57495;49.922;7.966;2023-02-21T00:54:25;100451.13;;;7.06;93.61
70133;BME280;57495;49.922;7.966;2023-02-21T00:56:44;100445.84;;;6.93;94.34
70133;BME280;57495;49.922;7.966;2023-02-21T00:59:03;100448.38;;;6.94;94.12
70133;BME280;57495;49.922;7.966;2023-02-21T01:01:22;100453.81;;;6.93;94.57
70133;BME280;57495;49.922;7.966;2023-02-21T01:03:42;100447.84;;;7.02;94.28
70133;BME280;57495;49.922;7.966;2023-02-21T01:06:01;100443.69;;;6.98;94.13
70133;BME280;57495;49.922;7.966;2023-02-21T01:08:20;100439.13;;;7.00;93.59
70133;BME280;57495;49.922;7.966;2023-02-21T01:10:41;100445.84;;;6.93;94.26
70133;BME280;57495;49.922;7.966;2023-02-21T01:13:00;100439.03;;;7.02;94.04
70133;BME280;57495;49.922;7.966;2023-02-21T01:15:19;100435.81;;;6.96;94.28
70133;BME280;57495;49.922;7.966;2023-02-21T01:17:38;100445.94;;;6.78;94.70
70133;BME280;57495;49.922;7.966;2023-02-21T01:19:59;100440.97;;;6.87;94.61
70133;BME280;57495;49.922;7.966;2023-02-21T01:22:18;100444.91;;;6.81;94.74
70133;BME280;57495;49.922;7.966;2023-02-21T01:24:37;100447.13;;;6.87;95.05
70133;BME280;57495;49.922;7.966;2023-02-21T01:26:58;100447.44;;;6.83;94.88
70133;BME280;57495;49.922;7.966;2023-02-21T01:29:17;100440.44;;;6.82;95.25
70133;BME280;57495;49.922;7.966;2023-02-21T01:31:36;100436.50;;;6.74;95.37
70133;BME280;57495;49.922;7.966;2023-02-21T01:33:55;100432.00;;;6.88;95.35
70133;BME280;57495;49.922;7.966;2023-02-21T01:36:15;100424.25;;;6.85;95.38
70133;BME280;57495;49.922;7.966;2023-02-21T01:38:34;100425.75;;;6.89;95.31
70133;BME280;57495;49.922;7.966;2023-02-21T01:40:53;100423.81;;;6.91;94.86
70133;BME280;57495;49.922;7.966;2023-02-21T01:43:15;100421.09;;;6.80;95.07
70133;BME280;57495;49.922;7.966;2023-02-21T01:45:50;100420.75;;;6.84;95.42
70133;BME280;57495;49.922;7.966;2023-02-21T01:48:13;100425.31;;;6.82;95.24
70133;BME280;57495;49.922;7.966;2023-02-21T01:50:33;100424.50;;;6.69;96.32
70133;BME280;57495;49.922;7.966;2023-02-21T01:52:52;100426.19;;;6.70;96.29
70133;BME280;57495;49.922;7.966;2023-02-21T01:55:12;100416.19;;;6.61;96.87
70133;BME280;57495;49.922;7.966;2023-02-21T01:57:31;100418.97;;;6.59;97.25
70133;BME280;57495;49.922;7.966;2023-02-21T01:59:54;100415.16;;;6.63;97.09
70133;BME280;57495;49.922;7.966;2023-02-21T02:02:17;100416.81;;;6.64;97.10
70133;BME280;57495;49.922;7.966;2023-02-21T02:04:37;100423.84;;;6.65;97.00
70133;BME280;57495;49.922;7.966;2023-02-21T02:06:56;100420.03;;;6.44;97.93
70133;BME280;57495;49.922;7.966;2023-02-21T02:09:16;100424.50;;;6.43;97.83
70133;BME280;57495;49.922;7.966;2023-02-21T02:11:49;100427.50;;;6.38;97.78
70133;BME280;57495;49.922;7.966;2023-02-21T02:14:25;100417.91;;;6.36;98.37
70133;BME280;57495;49.922;7.966;2023-02-21T02:16:39;100420.91;;;6.31;98.60
70133;BME280;57495;49.922;7.966;2023-02-21T02:18:56;100417.69;;;6.26;99.28
70133;BME280;57495;49.922;7.966;2023-02-21T02:23:44;100424.28;;;6.46;94.34
70133;BME280;57495;49.922;7.966;2023-02-21T02:26:13;100416.44;;;6.45;93.42
70133;BME280;57495;49.922;7.966;2023-02-21T02:28:35;100414.72;;;6.44;92.52
70133;BME280;57495;49.922;7.966;2023-02-21T02:31:15;100419.63;;;6.50;93.06
70133;BME280;57495;49.922;7.966;2023-02-21T02:33:42;100425.56;;;6.53;94.10
70133;BME280;57495;49.922;7.966;2023-02-21T02:35:54;100420.66;;;6.47;92.59
70133;BME280;57495;49.922;7.966;2023-02-21T02:38:01;100423.66;;;6.43;92.36
70133;BME280;57495;49.922;7.966;2023-02-21T02:40:12;100424.50;;;6.30;90.99
70133;BME280;57495;49.922;7.966;2023-02-21T02:42:29;100428.31;;;6.13;92.18
70133;BME280;57495;49.922;7.966;2023-02-21T02:44:36;100427.03;;;6.19;92.29
70133;BME280;57495;49.922;7.966;2023-02-21T02:46:40;100415.03;;;6.26;92.86
70133;BME280;57495;49.922;7.966;2023-02-21T02:48:45;100410.28;;;6.31;96.87
70133;BME280;57495;49.922;7.966;2023-02-21T02:50:50;100419.91;;;6.19;98.92
70133;BME280;57495;49.922;7.966;2023-02-21T02:52:53;100416.22;;;6.22;98.89
70133;BME280;57495;49.922;7.966;2023-02-21T02:54:59;100413.56;;;6.22;98.50
70133;BME280;57495;49.922;7.966;2023-02-21T02:57:02;100415.13;;;6.12;100.00
70133;BME280;57495;49.922;7.966;2023-02-21T02:59:11;100416.91;;;5.98;100.00
70133;BME280;57495;49.922;7.966;2023-02-21T03:01:28;100419.09;;;5.92;100.00
70133;BME280;57495;49.922;7.966;2023-02-21T03:03:45;100413.31;;;6.12;98.51
70133;BME280;57495;49.922;7.966;2023-02-21T03:06:00;100419.91;;;6.19;97.19
70133;BME280;57495;49.922;7.966;2023-02-21T03:08:13;100417.06;;;6.23;96.34
70133;BME280;57495;49.922;7.966;2023-02-21T03:10:22;100413.97;;;6.29;96.93
70133;BME280;57495;49.922;7.966;2023-02-21T03:12:32;100414.72;;;6.31;97.02
70133;BME280;57495;49.922;7.966;2023-02-21T03:14:37;100417.69;;;6.26;97.47
70133;BME280;57495;49.922;7.966;2023-02-21T03:16:43;100419.59;;;6.24;96.98
70133;BME280;57495;49.922;7.966;2023-02-21T03:18:48;100420.34;;;6.26;97.00
70133;BME280;57495;49.922;7.966;2023-02-21T03:20:55;100420.91;;;6.31;97.95
70133;BME280;57495;49.922;7.966;2023-02-21T03:23:00;100417.25;;;6.32;97.98
70133;BME280;57495;49.922;7.966;2023-02-21T03:25:03;100415.16;;;6.37;97.91
70133;BME280;57495;49.922;7.966;2023-02-21T03:27:06;100416.63;;;6.42;97.55
70133;BME280;57495;49.922;7.966;2023-02-21T03:29:08;100424.69;;;6.40;97.29
70133;BME280;57495;49.922;7.966;2023-02-21T03:31:11;100412.59;;;6.36;96.83
70133;BME280;57495;49.922;7.966;2023-02-21T03:33:14;100418.75;;;6.36;97.03
70133;BME280;57495;49.922;7.966;2023-02-21T03:35:16;100424.06;;;6.36;97.27
70133;BME280;57495;49.922;7.966;2023-02-21T03:37:20;100422.38;;;6.35;96.62
70133;BME280;57495;49.922;7.966;2023-02-21T03:39:24;100415.25;;;6.36;96.65
70133;BME280;57495;49.922;7.966;2023-02-21T03:41:25;100417.50;;;6.29;95.86
70133;BME280;57495;49.922;7.966;2023-02-21T03:43:27;100411.09;;;6.19;97.50
70133;BME280;57495;49.922;7.966;2023-02-21T03:45:28;100407.50;;;6.20;97.64
70133;BME280;57495;49.922;7.966;2023-02-21T03:47:29;100409.19;;;6.21;96.54
70133;BME280;57495;49.922;7.966;2023-02-21T03:49:31;100408.75;;;6.27;96.49
70133;BME280;57495;49.922;7.966;2023-02-21T03:51:32;100401.75;;;6.26;97.34
70133;BME280;57495;49.922;7.966;2023-02-21T03:53:34;100406.44;;;6.23;99.03
70133;BME280;57495;49.922;7.966;2023-02-21T03:55:36;100409.38;;;6.18;97.76
70133;BME280;57495;49.922;7.966;2023-02-21T03:57:38;100408.34;;;6.21;96.81
70133;BME280;57495;49.922;7.966;2023-02-21T03:59:39;100403.97;;;6.19;96.98
70133;BME280;57495;49.922;7.966;2023-02-21T04:01:41;100403.97;;;6.07;98.82
70133;BME280;57495;49.922;7.966;2023-02-21T04:03:42;100398.16;;;6.02;98.80
70133;BME280;57495;49.922;7.966;2023-02-21T04:05:43;100404.94;;;6.06;98.88
70133;BME280;57495;49.922;7.966;2023-02-21T04:07:44;100412.16;;;6.04;97.63
70133;BME280;57495;49.922;7.966;2023-02-21T04:09:46;100411.28;;;6.03;96.42
70133;BME280;57495;49.922;7.966;2023-02-21T04:11:49;100412.16;;;6.04;96.19
70133;BME280;57495;49.922;7.966;2023-02-21T04:13:50;100400.78;;;6.02;95.96
70133;BME280;57495;49.922;7.966;2023-02-21T04:15:51;100401.94;;;5.97;96.91
70133;BME280;57495;49.922;7.966;2023-02-21T04:17:53;100408.75;;;6.02;96.50
70133;BME280;57495;49.922;7.966;2023-02-21T04:19:54;100404.69;;;5.96;95.45
70133;BME280;57495;49.922;7.966;2023-02-21T04:21:56;100404.03;;;5.92;94.60
70133;BME280;57495;49.922;7.966;2023-02-21T04:23:57;100407.25;;;5.97;95.86
70133;BME280;57495;49.922;7.966;2023-02-21T04:25:58;100404.97;;;5.91;95.22
70133;BME280;57495;49.922;7.966;2023-02-21T04:28:01;100397.84;;;5.92;95.26
70133;BME280;57495;49.922;7.966;2023-02-21T04:30:03;100404.78;;;5.94;96.09
70133;BME280;57495;49.922;7.966;2023-02-21T04:32:04;100403.25;;;5.90;94.67
70133;BME280;57495;49.922;7.966;2023-02-21T04:34:06;100403.84;;;5.95;94.79
70133;BME280;57495;49.922;7.966;2023-02-21T04:36:07;100403.06;;;5.93;94.43
70133;BME280;57495;49.922;7.966;2023-02-21T04:38:09;100405.91;;;5.90;95.14
70133;BME280;57495;49.922;7.966;2023-02-21T04:40:11;100404.97;;;5.91;95.09
70133;BME280;57495;49.922;7.966;2023-02-21T04:42:12;100401.38;;;5.92;95.43
70133;BME280;57495;49.922;7.966;2023-02-21T04:44:15;100408.13;;;5.98;95.84
70133;BME280;57495;49.922;7.966;2023-02-21T04:46:17;100396.81;;;5.94;96.49
70133;BME280;57495;49.922;7.966;2023-02-21T04:48:18;100399.34;;;5.83;97.31
70133;BME280;57495;49.922;7.966;2023-02-21T04:50:20;100402.75;;;5.85;98.26
70133;BME280;57495;49.922;7.966;2023-02-21T04:52:21;100399.34;;;5.83;99.03
70133;BME280;57495;49.922;7.966;2023-02-21T04:54:23;100399.13;;;5.86;99.68
70133;BME280;57495;49.922;7.966;2023-02-21T04:56:24;100397.97;;;5.77;100.00
70133;BME280;57495;49.922;7.966;2023-02-21T04:58:27;100396.69;;;5.83;100.00
70133;BME280;57495;49.922;7.966;2023-02-21T05:00:30;100393.03;;;5.71;100.00
70133;BME280;57495;49.922;7.966;2023-02-21T05:02:31;100395.19;;;5.79;100.00
70133;BME280;57495;49.922;7.966;2023-02-21T05:04:33;100393.59;;;5.76;100.00
70133;BME280;57495;49.922;7.966;2023-02-21T05:06:34;100396.91;;;5.80;100.00
70133;BME280;57495;49.922;7.966;2023-02-21T05:08:36;100390.84;;;5.78;100.00
70133;BME280;57495;49.922;7.966;2023-02-21T05:10:37;100395.69;;;5.71;100.00
70133;BME280;57495;49.922;7.966;2023-02-21T05:12:38;100398.06;;;5.76;100.00
70133;BME280;57495;49.922;7.966;2023-02-21T05:14:40;100396.78;;;5.81;100.00
70133;BME280;57495;49.922;7.966;2023-02-21T05:16:43;100403.38;;;5.76;100.00
70133;BME280;57495;49.922;7.966;2023-02-21T05:18:46;100402.06;;;5.69;100.00
70133;BME280;57495;49.922;7.966;2023-02-21T05:20:48;100398.34;;;5.71;100.00
70133;BME280;57495;49.922;7.966;2023-02-21T05:22:50;100401.31;;;5.67;100.00
70133;BME280;57495;49.922;7.966;2023-02-21T05:24:51;100398.03;;;5.63;100.00
70133;BME280;57495;49.922;7.966;2023-02-21T05:26:53;100397.16;;;5.62;100.00
70133;BME280;57495;49.922;7.966;2023-02-21T05:28:54;100392.44;;;5.53;100.00
70133;BME280;57495;49.922;7.966;2023-02-21T05:30:56;100397.75;;;5.53;100.00
70133;BME280;57495;49.922;7.966;2023-02-21T05:32:59;100394.88;;;5.43;100.00
70133;BME280;57495;49.922;7.966;2023-02-21T05:35:01;100392.66;;;5.50;100.00
70133;BME280;57495;49.922;7.966;2023-02-21T05:37:02;100396.47;;;5.46;100.00
70133;BME280;57495;49.922;7.966;2023-02-21T05:39:04;100402.31;;;5.51;100.00
70133;BME280;57495;49.922;7.966;2023-02-21T05:41:06;100401.38;;;5.52;100.00
70133;BME280;57495;49.922;7.966;2023-02-21T05:43:07;100399.66;;;5.51;100.00
70133;BME280;57495;49.922;7.966;2023-02-21T05:45:09;100397.22;;;5.48;100.00
70133;BME280;57495;49.922;7.966;2023-02-21T05:47:12;100393.41;;;5.52;100.00
70133;BME280;57495;49.922;7.966;2023-02-21T05:49:14;100394.16;;;5.54;100.00
70133;BME280;57495;49.922;7.966;2023-02-21T05:51:17;100399.28;;;5.57;100.00
70133;BME280;57495;49.922;7.966;2023-02-21T05:53:18;100397.97;;;5.50;100.00
70133;BME280;57495;49.922;7.966;2023-02-21T05:55:20;100395.72;;;5.44;100.00
70133;BME280;57495;49.922;7.966;2023-02-21T05:57:21;100405.38;;;5.45;100.00
70133;BME280;57495;49.922;7.966;2023-02-21T05:59:23;100406.75;;;5.23;100.00
70133;BME280;57495;49.922;7.966;2023-02-21T06:01:24;100411.88;;;5.27;100.00
70133;BME280;57495;49.922;7.966;2023-02-21T06:03:26;100409.91;;;5.16;100.00
70133;BME280;57495;49.922;7.966;2023-02-21T06:05:29;100407.56;;;5.11;100.00
70133;BME280;57495;49.922;7.966;2023-02-21T06:07:30;100403.03;;;5.13;100.00
70133;BME280;57495;49.922;7.966;2023-02-21T06:09:31;100408.16;;;5.02;100.00
70133;BME280;57495;49.922;7.966;2023-02-21T06:11:34;100409.25;;;5.12;100.00
70133;BME280;57495;49.922;7.966;2023-02-21T06:13:37;100411.16;;;5.10;100.00
70133;BME280;57495;49.922;7.966;2023-02-21T06:15:38;100407.41;;;4.86;100.00
70133;BME280;57495;49.922;7.966;2023-02-21T06:17:41;100415.38;;;4.86;100.00
70133;BME280;57495;49.922;7.966;2023-02-21T06:19:42;100408.84;;;4.91;100.00
70133;BME280;57495;49.922;7.966;2023-02-21T06:21:45;100406.00;;;4.94;100.00
70133;BME280;57495;49.922;7.966;2023-02-21T06:23:47;100405.41;;;5.03;100.00
70133;BME280;57495;49.922;7.966;2023-02-21T06:25:48;100407.78;;;4.94;100.00
70133;BME280;57495;49.922;7.966;2023-02-21T06:27:50;100412.72;;;4.86;100.00
70133;BME280;57495;49.922;7.966;2023-02-21T06:29:51;100414.81;;;4.80;100.00
70133;BME280;57495;49.922;7.966;2023-02-21T06:31:55;100412.63;;;4.87;100.00
70133;BME280;57495;49.922;7.966;2023-02-21T06:33:57;100409.88;;;4.89;100.00
70133;BME280;57495;49.922;7.966;2023-02-21T06:36:03;100410.16;;;4.98;100.00
70133;BME280;57495;49.922;7.966;2023-02-21T06:38:05;100408.34;;;4.99;100.00
70133;BME280;57495;49.922;7.966;2023-02-21T06:40:07;100406.25;;;5.04;100.00
70133;BME280;57495;49.922;7.966;2023-02-21T06:42:11;100404.34;;;5.06;100.00
70133;BME280;57495;49.922;7.966;2023-02-21T06:44:13;100408.66;;;4.94;100.00
70133;BME280;57495;49.922;7.966;2023-02-21T06:46:15;100398.50;;;4.87;100.00
70133;BME280;57495;49.922;7.966;2023-02-21T06:48:16;100409.91;;;4.74;100.00
70133;BME280;57495;49.922;7.966;2023-02-21T06:50:18;100404.88;;;4.84;100.00
70133;BME280;57495;49.922;7.966;2023-02-21T06:52:19;100406.28;;;4.90;100.00
70133;BME280;57495;49.922;7.966;2023-02-21T06:54:22;100404.78;;;4.86;100.00
70133;BME280;57495;49.922;7.966;2023-02-21T06:56:24;100404.09;;;4.96;100.00
70133;BME280;57495;49.922;7.966;2023-02-21T06:58:26;100407.13;;;4.90;100.00
70133;BME280;57495;49.922;7.966;2023-02-21T07:00:27;100405.34;;;4.91;100.00
70133;BME280;57495;49.922;7.966;2023-02-21T07:02:29;100408.34;;;4.99;100.00
70133;BME280;57495;49.922;7.966;2023-02-21T07:04:30;100404.28;;;4.93;100.00
70133;BME280;57495;49.922;7.966;2023-02-21T07:06:31;100407.78;;;4.94;100.00
70133;BME280;57495;49.922;7.966;2023-02-21T07:08:33;100414.97;;;5.06;100.00
70133;BME280;57495;49.922;7.966;2023-02-21T07:10:36;100410.72;;;5.03;100.00
70133;BME280;57495;49.922;7.966;2023-02-21T07:12:37;100408.53;;;4.96;100.00
70133;BME280;57495;49.922;7.966;2023-02-21T07:14:39;100409.69;;;4.92;100.00
70133;BME280;57495;49.922;7.966;2023-02-21T07:16:40;100409.94;;;5.01;100.00
70133;BME280;57495;49.922;7.966;2023-02-21T07:18:41;100409.66;;;5.06;100.00
70133;BME280;57495;49.922;7.966;2023-02-21T07:20:43;100413.00;;;6.17;100.00
70133;BME280;57495;49.922;7.966;2023-02-21T07:22:44;100414.41;;;6.35;100.00
70133;BME280;57495;49.922;7.966;2023-02-21T07:24:46;100415.56;;;6.18;100.00
70133;BME280;57495;49.922;7.966;2023-02-21T07:26:48;100411.41;;;6.14;100.00
70133;BME280;57495;49.922;7.966;2023-02-21T07:28:50;100419.59;;;5.84;100.00
70133;BME280;57495;49.922;7.966;2023-02-21T07:30:51;100411.47;;;5.33;100.00
70133;BME280;57495;49.922;7.966;2023-02-21T07:32:53;100403.47;;;5.20;100.00
70133;BME280;57495;49.922;7.966;2023-02-21T07:34:54;100410.59;;;5.05;100.00
70133;BME280;57495;49.922;7.966;2023-02-21T07:36:55;100411.63;;;5.17;100.00
70133;BME280;57495;49.922;7.966;2023-02-21T07:38:57;100411.88;;;5.27;100.00
70133;BME280;57495;49.922;7.966;2023-02-21T07:41:00;100411.88;;;5.27;100.00
70133;BME280;57495;49.922;7.966;2023-02-21T07:43:03;100414.69;;;5.38;100.00
70133;BME280;57495;49.922;7.966;2023-02-21T07:45:05;100413.19;;;5.34;100.00
70133;BME280;57495;49.922;7.966;2023-02-21T07:47:06;100419.38;;;5.47;100.00
70133;BME280;57495;49.922;7.966;2023-02-21T07:49:09;100415.19;;;5.57;100.00
70133;BME280;57495;49.922;7.966;2023-02-21T07:51:11;100418.97;;;5.53;100.00
70133;BME280;57495;49.922;7.966;2023-02-21T07:53:13;100416.88;;;5.58;100.00
70133;BME280;57495;49.922;7.966;2023-02-21T07:55:15;100417.75;;;5.72;100.00
70133;BME280;57495;49.922;7.966;2023-02-21T07:57:17;100413.75;;;5.79;100.00
70133;BME280;57495;49.922;7.966;2023-02-21T07:59:20;100413.22;;;5.74;100.00
70133;BME280;57495;49.922;7.966;2023-02-21T08:01:24;100407.94;;;5.74;100.00
70133;BME280;57495;49.922;7.966;2023-02-21T08:03:25;100402.50;;;5.75;100.00
70133;BME280;57495;49.922;7.966;2023-02-21T08:05:27;100410.09;;;5.94;100.00
70133;BME280;57495;49.922;7.966;2023-02-21T08:07:28;100402.53;;;5.88;100.00
70133;BME280;57495;49.922;7.966;2023-02-21T08:09:30;100397.09;;;6.17;100.00
70133;BME280;57495;49.922;7.966;2023-02-21T08:11:32;100407.72;;;6.17;100.00
70133;BME280;57495;49.922;7.966;2023-02-21T08:13:35;100407.34;;;5.96;100.00
70133;BME280;57495;49.922;7.966;2023-02-21T08:15:38;100405.78;;;6.06;100.00
70133;BME280;57495;49.922;7.966;2023-02-21T08:17:40;100403.78;;;6.23;100.00
70133;BME280;57495;49.922;7.966;2023-02-21T08:19:41;100404.53;;;6.37;100.00
70133;BME280;57495;49.922;7.966;2023-02-21T08:21:43;100403.69;;;6.50;100.00
70133;BME280;57495;49.922;7.966;2023-02-21T08:23:46;100404.53;;;6.50;100.00
70133;BME280;57495;49.922;7.966;2023-02-21T08:25:48;100407.28;;;6.49;100.00
70133;BME280;57495;49.922;7.966;2023-02-21T08:27:49;100404.91;;;6.70;100.00
70133;BME280;57495;49.922;7.966;2023-02-21T08:29:54;100402.06;;;6.73;100.00
70133;BME280;57495;49.922;7.966;2023-02-21T08:31:56;100401.66;;;7.03;99.75
70133;BME280;57495;49.922;7.966;2023-02-21T08:33:58;100399.28;;;6.74;98.86
70133;BME280;57495;49.922;7.966;2023-02-21T08:35:59;100405.31;;;6.89;98.90
70133;BME280;57495;49.922;7.966;2023-02-21T08:38:01;100402.72;;;7.13;99.01
70133;BME280;57495;49.922;7.966;2023-02-21T08:40:03;100396.13;;;7.06;98.15
70133;BME280;57495;49.922;7.966;2023-02-21T08:42:05;100397.66;;;7.46;96.94
70133;BME280;57495;49.922;7.966;2023-02-21T08:44:07;100392.25;;;7.47;96.33
70133;BME280;57495;49.922;7.966;2023-02-21T08:46:08;100393.66;;;7.40;95.56
70133;BME280;57495;49.922;7.966;2023-02-21T08:48:11;100383.25;;;7.37;97.93
70133;BME280;57495;49.922;7.966;2023-02-21T08:50:13;100386.06;;;7.71;95.65
70133;BME280;57495;49.922;7.966;2023-02-21T08:52:15;100382.50;;;7.94;95.76
70133;BME280;57495;49.922;7.966;2023-02-21T08:54:16;100387.09;;;7.81;93.94
70133;BME280;57495;49.922;7.966;2023-02-21T08:56:18;100385.41;;;7.91;94.62
70133;BME280;57495;49.922;7.966;2023-02-21T08:58:20;100378.09;;;7.82;95.46
70133;BME280;57495;49.922;7.966;2023-02-21T09:00:23;100378.63;;;7.87;96.43
70133;BME280;57495;49.922;7.966;2023-02-21T09:02:27;100376.13;;;8.08;94.63
70133;BME280;57495;49.922;7.966;2023-02-21T09:04:31;100374.69;;;8.27;94.26
70133;BME280;57495;49.922;7.966;2023-02-21T09:06:32;100372.22;;;8.48;93.75
70133;BME280;57495;49.922;7.966;2023-02-21T09:08:34;100377.25;;;8.40;93.40
70133;BME280;57495;49.922;7.966;2023-02-21T09:10:36;100369.97;;;8.30;91.46
70133;BME280;57495;49.922;7.966;2023-02-21T09:12:46;100370.50;;;8.47;92.17
70133;BME280;57495;49.922;7.966;2023-02-21T09:14:47;100376.81;;;8.46;92.50
70133;BME280;57495;49.922;7.966;2023-02-21T09:16:49;100370.25;;;8.39;92.89
70133;BME280;57495;49.922;7.966;2023-02-21T09:18:54;100365.19;;;8.58;93.87
70133;BME280;57495;49.922;7.966;2023-02-21T09:20:57;100361.06;;;8.77;91.32
70133;BME280;57495;49.922;7.966;2023-02-21T09:22:58;100367.22;;;8.66;90.35
70133;BME280;57495;49.922;7.966;2023-02-21T09:25:00;100360.94;;;8.56;90.94
70133;BME280;57495;49.922;7.966;2023-02-21T09:27:03;100368.19;;;8.99;93.36
70133;BME280;57495;49.922;7.966;2023-02-21T09:29:04;100370.94;;;9.08;90.63
70133;BME280;57495;49.922;7.966;2023-02-21T09:31:06;100359.53;;;9.06;88.39
70133;BME280;57495;49.922;7.966;2023-02-21T09:33:08;100363.22;;;9.05;90.51
70133;BME280;57495;49.922;7.966;2023-02-21T09:35:10;100355.97;;;8.85;91.03
70133;BME280;57495;49.922;7.966;2023-02-21T09:37:14;100355.91;;;9.07;89.73
70133;BME280;57495;49.922;7.966;2023-02-21T09:39:16;100352.72;;;9.25;88.96
70133;BME280;57495;49.922;7.966;2023-02-21T09:41:18;100355.16;;;9.49;88.88
70133;BME280;57495;49.922;7.966;2023-02-21T09:43:27;100350.84;;;9.69;86.12
70133;BME280;57495;49.922;7.966;2023-02-21T09:45:33;100345.78;;;9.87;84.97
70133;BME280;57495;49.922;7.966;2023-02-21T09:47:37;100348.69;;;10.26;83.68
70133;BME280;57495;49.922;7.966;2023-02-21T09:49:40;100343.47;;;10.24;84.72
70133;BME280;57495;49.922;7.966;2023-02-21T09:51:44;100338.69;;;10.49;82.06
70133;BME280;57495;49.922;7.966;2023-02-21T09:53:48;100338.25;;;10.44;81.88
70133;BME280;57495;49.922;7.966;2023-02-21T09:55:50;100340.50;;;10.89;79.86
70133;BME280;57495;49.922;7.966;2023-02-21T09:57:54;100341.47;;;10.78;80.15
70133;BME280;57495;49.922;7.966;2023-02-21T09:59:56;100339.31;;;11.13;80.32
70133;BME280;57495;49.922;7.966;2023-02-21T10:02:06;100340.31;;;11.90;79.45
70133;BME280;57495;49.922;7.966;2023-02-21T10:04:20;100335.94;;;11.98;77.48
70133;BME280;57495;49.922;7.966;2023-02-21T10:06:35;100339.56;;;12.54;76.55
70133;BME280;57495;49.922;7.966;2023-02-21T10:08:43;100339.66;;;12.35;75.92
70133;BME280;57495;49.922;7.966;2023-02-21T10:10:52;100338.28;;;12.59;73.65
70133;BME280;57495;49.922;7.966;2023-02-21T10:12:58;100344.78;;;12.18;74.91
70133;BME280;57495;49.922;7.966;2023-02-21T10:15:16;100335.22;;;11.87;73.50
70133;BME280;57495;49.922;7.966;2023-02-21T10:17:23;100346.50;;;11.80;74.45
70133;BME280;57495;49.922;7.966;2023-02-21T10:19:30;100338.19;;;12.03;73.00
70133;BME280;57495;49.922;7.966;2023-02-21T10:21:34;100334.97;;;12.74;71.80
70133;BME280;57495;49.922;7.966;2023-02-21T10:23:38;100341.63;;;12.70;73.92
70133;BME280;57495;49.922;7.966;2023-02-21T10:25:43;100337.56;;;12.66;71.13
70133;BME280;57495;49.922;7.966;2023-02-21T10:27:46;100338.09;;;12.70;70.31
70133;BME280;57495;49.922;7.966;2023-02-21T10:29:51;100336.31;;;12.51;71.29
70133;BME280;57495;49.922;7.966;2023-02-21T10:31:58;100338.47;;;13.03;69.16
70133;BME280;57495;49.922;7.966;2023-02-21T10:34:04;100339.06;;;12.41;71.32
70133;BME280;57495;49.922;7.966;2023-02-21T10:36:11;100329.69;;;13.10;69.24
70133;BME280;57495;49.922;7.966;2023-02-21T10:38:18;100332.59;;;12.34;69.31
70133;BME280;57495;49.922;7.966;2023-02-21T10:40:28;100334.53;;;12.97;68.15
70133;BME280;57495;49.922;7.966;2023-02-21T10:42:39;100330.16;;;13.42;68.46
70133;BME280;57495;49.922;7.966;2023-02-21T10:44:44;100325.88;;;13.31;71.05
70133;BME280;57495;49.922;7.966;2023-02-21T10:46:48;100325.97;;;13.57;68.59
70133;BME280;57495;49.922;7.966;2023-02-21T10:48:55;100317.94;;;13.29;68.42
70133;BME280;57495;49.922;7.966;2023-02-21T10:51:07;100314.59;;;13.89;66.00
70133;BME280;57495;49.922;7.966;2023-02-21T10:53:23;100313.78;;;14.15;66.32
70133;BME280;57495;49.922;7.966;2023-02-21T10:55:25;100312.47;;;14.54;64.79
70133;BME280;57495;49.922;7.966;2023-02-21T10:57:27;100308.09;;;14.18;63.51
70133;BME280;57495;49.922;7.966;2023-02-21T10:59:31;100301.06;;;14.60;64.11
70133;BME280;57495;49.922;7.966;2023-02-21T11:01:41;100304.75;;;15.01;64.38
70133;BME280;57495;49.922;7.966;2023-02-21T11:03:44;100303.63;;;15.28;63.45
70133;BME280;57495;49.922;7.966;2023-02-21T11:05:48;100301.94;;;15.36;61.24
70133;BME280;57495;49.922;7.966;2023-02-21T11:07:58;100287.38;;;14.87;60.98
70133;BME280;57495;49.922;7.966;2023-02-21T11:10:01;100299.13;;;14.78;63.66